Time;durP1;ratioP1;P1;durP2;ratioP2;P2;SDS_P1;SDS_P2;PMS_P1;PMS_P2;Temp;Humidity;BMP_temperature;BMP_pressure;BME280_temperature;BME280_humidity;BME280_pressure;Samples;Min_cycle;Max_cycle;Signal;HPM_P1;HPM_P2
2021/07/30 00:00:43;;;;;;;11.75;8.450001;;;;;;;15.32;100;94919.62;;;;
2021/07/30 00:01:44;;;;;;;11.75;8.450001;;;;;;;15.32;100;94919.62;;;;
2021/07/30 00:02:44;;;;;;;11.75;8.450001;;;;;;;15.32;100;94919.62;;;;
2021/07/30 00:03:44;;;;;;;11.75;8.450001;;;;;;;15.32;100;94919.62;;;;
2021/07/30 00:04:45;;;;;;;11.75;8.450001;;;;;;;15.32;100;94919.62;;;;
2021/07/30 00:05:46;;;;;;;11.75;8.450001;;;;;;;15.32;100;94919.62;;;;
2021/07/30 00:06:49;;;;;;;11.75;8.450001;;;;;;;15.32;100;94919.62;;;;
2021/07/30 00:07:50;;;;;;;11.75;8.450001;;;;;;;15.32;100;94919.62;;;;
2021/07/30 00:08:50;;;;;;;11.75;8.450001;;;;;;;15.32;100;94919.62;;;;
2021/07/30 00:09:51;;;;;;;11.75;8.450001;;;;;;;15.32;100;94919.62;;;;
2021/07/30 00:10:52;;;;;;;9.349998;8.450001;;;;;;;15.23;100;94915.28;;;;
2021/07/30 00:11:53;;;;;;;9.349998;8.450001;;;;;;;15.23;100;94915.28;;;;
2021/07/30 00:12:55;;;;;;;9.349998;8.450001;;;;;;;15.23;100;94915.28;;;;
2021/07/30 00:13:56;;;;;;;9.349998;8.450001;;;;;;;15.23;100;94915.28;;;;
2021/07/30 00:14:57;;;;;;;9.349998;8.450001;;;;;;;15.23;100;94915.28;;;;
2021/07/30 00:15:57;;;;;;;9.349998;8.450001;;;;;;;15.23;100;94915.28;;;;
2021/07/30 00:16:58;;;;;;;9.349998;8.450001;;;;;;;15.23;100;94915.28;;;;
2021/07/30 00:17:59;;;;;;;9.349998;8.450001;;;;;;;15.23;100;94915.28;;;;
2021/07/30 00:18:59;;;;;;;9.349998;8.450001;;;;;;;15.23;100;94915.28;;;;
2021/07/30 00:20:00;;;;;;;9.349998;8.450001;;;;;;;15.23;100;94915.28;;;;
2021/07/30 00:21:04;;;;;;;9.349998;8.450001;;;;;;;15.23;100;94915.28;;;;
2021/07/30 00:22:04;;;;;;;9.600002;8.65;;;;;;;15.22;100;94921;;;;
2021/07/30 00:23:05;;;;;;;9.600002;8.65;;;;;;;15.22;100;94921;;;;
2021/07/30 00:24:05;;;;;;;9.600002;8.65;;;;;;;15.22;100;94921;;;;
2021/07/30 00:25:06;;;;;;;9.600002;8.65;;;;;;;15.22;100;94921;;;;
2021/07/30 00:26:07;;;;;;;9.600002;8.65;;;;;;;15.22;100;94921;;;;
2021/07/30 00:27:08;;;;;;;9.600002;8.65;;;;;;;15.22;100;94921;;;;
2021/07/30 00:28:08;;;;;;;9.600002;8.65;;;;;;;15.22;100;94921;;;;
2021/07/30 00:29:09;;;;;;;9.600002;8.65;;;;;;;15.22;100;94921;;;;
2021/07/30 00:30:10;;;;;;;9.600002;8.65;;;;;;;15.22;100;94921;;;;
2021/07/30 00:31:11;;;;;;;9.600002;8.65;;;;;;;15.22;100;94921;;;;
2021/07/30 00:32:12;;;;;;;9.9;9.000001;;;;;;;15.15;100;94923.97;;;;
2021/07/30 00:33:12;;;;;;;9.9;9.000001;;;;;;;15.15;100;94923.97;;;;
2021/07/30 00:34:13;;;;;;;9.9;9.000001;;;;;;;15.15;100;94923.97;;;;
2021/07/30 00:35:13;;;;;;;9.9;9.000001;;;;;;;15.15;100;94923.97;;;;
2021/07/30 00:36:14;;;;;;;9.9;9.000001;;;;;;;15.15;100;94923.97;;;;
2021/07/30 00:37:15;;;;;;;9.9;9.000001;;;;;;;15.15;100;94923.97;;;;
2021/07/30 00:38:15;;;;;;;9.9;9.000001;;;;;;;15.15;100;94923.97;;;;
2021/07/30 00:39:16;;;;;;;9.9;9.000001;;;;;;;15.15;100;94923.97;;;;
2021/07/30 00:40:16;;;;;;;9.9;9.000001;;;;;;;15.15;100;94923.97;;;;
2021/07/30 00:41:17;;;;;;;9.9;9.000001;;;;;;;15.15;100;94923.97;;;;
2021/07/30 00:42:17;;;;;;;9.9;9.000001;;;;;;;15.15;100;94923.97;;;;
2021/07/30 00:43:18;;;;;;;10;9;;;;;;;15.15;100;94925.34;;;;
2021/07/30 00:44:19;;;;;;;10;9;;;;;;;15.15;100;94925.34;;;;
2021/07/30 00:45:19;;;;;;;10;9;;;;;;;15.15;100;94925.34;;;;
2021/07/30 00:46:21;;;;;;;10;9;;;;;;;15.15;100;94925.34;;;;
2021/07/30 00:47:21;;;;;;;10;9;;;;;;;15.15;100;94925.34;;;;
2021/07/30 00:48:22;;;;;;;10;9;;;;;;;15.15;100;94925.34;;;;
2021/07/30 00:49:23;;;;;;;10;9;;;;;;;15.15;100;94925.34;;;;
2021/07/30 00:50:24;;;;;;;10;9;;;;;;;15.15;100;94925.34;;;;
2021/07/30 00:51:25;;;;;;;10;9;;;;;;;15.15;100;94925.34;;;;
2021/07/30 00:52:26;;;;;;;10;9;;;;;;;15.15;100;94925.34;;;;
2021/07/30 00:53:27;;;;;;;10;9;;;;;;;15.15;100;94925.34;;;;
2021/07/30 00:54:28;;;;;;;9.4;8.550001;;;;;;;15.1;100;94916.77;;;;
2021/07/30 00:55:29;;;;;;;9.4;8.550001;;;;;;;15.1;100;94916.77;;;;
2021/07/30 00:56:30;;;;;;;9.4;8.550001;;;;;;;15.1;100;94916.77;;;;
2021/07/30 00:57:30;;;;;;;9.4;8.550001;;;;;;;15.1;100;94916.77;;;;
2021/07/30 00:58:31;;;;;;;9.4;8.550001;;;;;;;15.1;100;94916.77;;;;
2021/07/30 00:59:32;;;;;;;9.4;8.550001;;;;;;;15.1;100;94916.77;;;;
2021/07/30 01:00:33;;;;;;;9.4;8.550001;;;;;;;15.1;100;94916.77;;;;
2021/07/30 01:01:33;;;;;;;9.4;8.550001;;;;;;;15.1;100;94916.77;;;;
2021/07/30 01:02:34;;;;;;;9.4;8.550001;;;;;;;15.1;100;94916.77;;;;
2021/07/30 01:03:35;;;;;;;9.4;8.550001;;;;;;;15.1;100;94916.77;;;;
2021/07/30 01:04:35;;;;;;;9.4;8.550001;;;;;;;15.1;100;94916.77;;;;
2021/07/30 01:05:36;;;;;;;9.4;8.550001;;;;;;;15.1;100;94916.77;;;;
2021/07/30 01:06:36;;;;;;;9.4;8.550001;;;;;;;15.1;100;94916.77;;;;
2021/07/30 01:07:37;;;;;;;9.4;8.550001;;;;;;;15.1;100;94916.77;;;;
2021/07/30 01:08:38;;;;;;;9.4;8.550001;;;;;;;15.1;100;94916.77;;;;
2021/07/30 01:09:38;;;;;;;9.4;8.550001;;;;;;;15.1;100;94916.77;;;;
2021/07/30 01:10:39;;;;;;;9.4;8.550001;;;;;;;15.1;100;94916.77;;;;
2021/07/30 01:11:39;;;;;;;9.4;8.550001;;;;;;;15.1;100;94916.77;;;;
2021/07/30 01:12:40;;;;;;;9.4;8.550001;;;;;;;15.1;100;94916.77;;;;
2021/07/30 01:13:40;;;;;;;9.4;8.550001;;;;;;;15.1;100;94916.77;;;;
2021/07/30 01:14:41;;;;;;;9.4;8.550001;;;;;;;15.1;100;94916.77;;;;
2021/07/30 01:15:41;;;;;;;10;9;;;;;;;15.17;100;94910.39;;;;
2021/07/30 01:16:42;;;;;;;10;9;;;;;;;15.17;100;94910.39;;;;
2021/07/30 01:17:42;;;;;;;10;9;;;;;;;15.17;100;94910.39;;;;
2021/07/30 01:18:43;;;;;;;10;9;;;;;;;15.17;100;94910.39;;;;
2021/07/30 01:19:43;;;;;;;10;9;;;;;;;15.17;100;94910.39;;;;
2021/07/30 01:20:44;;;;;;;10;9;;;;;;;15.17;100;94910.39;;;;
2021/07/30 01:21:53;;;;;;;10;9;;;;;;;15.17;100;94910.39;;;;
2021/07/30 01:22:54;;;;;;;10;9;;;;;;;15.17;100;94910.39;;;;
2021/07/30 01:23:59;;;;;;;10;9;;;;;;;15.17;100;94910.39;;;;
2021/07/30 01:24:59;;;;;;;10;9;;;;;;;15.17;100;94910.39;;;;
2021/07/30 01:26:00;;;;;;;10;9.1;;;;;;;15.34;100;94905.61;;;;
2021/07/30 01:27:00;;;;;;;10;9.1;;;;;;;15.34;100;94905.61;;;;
2021/07/30 01:28:01;;;;;;;10;9.1;;;;;;;15.34;100;94905.61;;;;
2021/07/30 01:29:01;;;;;;;10;9.1;;;;;;;15.34;100;94905.61;;;;
2021/07/30 01:30:02;;;;;;;10;9.1;;;;;;;15.34;100;94905.61;;;;
2021/07/30 01:31:03;;;;;;;10;9.1;;;;;;;15.34;100;94905.61;;;;
2021/07/30 01:32:04;;;;;;;10;9.1;;;;;;;15.34;100;94905.61;;;;
2021/07/30 01:33:06;;;;;;;10;9.1;;;;;;;15.34;100;94905.61;;;;
2021/07/30 01:34:06;;;;;;;10;9.1;;;;;;;15.34;100;94905.61;;;;
2021/07/30 01:35:07;;;;;;;10;9.1;;;;;;;15.34;100;94905.61;;;;
2021/07/30 01:36:08;;;;;;;10;9.1;;;;;;;15.34;100;94905.61;;;;
2021/07/30 01:37:08;;;;;;;9.85;8.950001;;;;;;;15.29;100;94908.73;;;;
2021/07/30 01:38:09;;;;;;;9.85;8.950001;;;;;;;15.29;100;94908.73;;;;
2021/07/30 01:39:10;;;;;;;9.85;8.950001;;;;;;;15.29;100;94908.73;;;;
2021/07/30 01:40:10;;;;;;;9.85;8.950001;;;;;;;15.29;100;94908.73;;;;
2021/07/30 01:41:11;;;;;;;9.85;8.950001;;;;;;;15.29;100;94908.73;;;;
2021/07/30 01:42:13;;;;;;;9.85;8.950001;;;;;;;15.29;100;94908.73;;;;
2021/07/30 01:43:13;;;;;;;9.85;8.950001;;;;;;;15.29;100;94908.73;;;;
2021/07/30 01:44:14;;;;;;;9.85;8.950001;;;;;;;15.29;100;94908.73;;;;
2021/07/30 01:45:15;;;;;;;9.85;8.950001;;;;;;;15.29;100;94908.73;;;;
2021/07/30 01:46:16;;;;;;;9.85;8.950001;;;;;;;15.29;100;94908.73;;;;
2021/07/30 01:47:16;;;;;;;9.85;8.9;;;;;;;15.23;100;94908.89;;;;
2021/07/30 01:48:17;;;;;;;9.85;8.9;;;;;;;15.23;100;94908.89;;;;
2021/07/30 01:49:17;;;;;;;9.85;8.9;;;;;;;15.23;100;94908.89;;;;
2021/07/30 01:50:18;;;;;;;9.85;8.9;;;;;;;15.23;100;94908.89;;;;
2021/07/30 01:51:18;;;;;;;9.85;8.9;;;;;;;15.23;100;94908.89;;;;
2021/07/30 01:52:19;;;;;;;9.85;8.9;;;;;;;15.23;100;94908.89;;;;
2021/07/30 01:53:19;;;;;;;9.85;8.9;;;;;;;15.23;100;94908.89;;;;
2021/07/30 01:54:20;;;;;;;9.85;8.9;;;;;;;15.23;100;94908.89;;;;
2021/07/30 01:55:21;;;;;;;9.85;8.9;;;;;;;15.23;100;94908.89;;;;
2021/07/30 01:56:21;;;;;;;9.85;8.9;;;;;;;15.23;100;94908.89;;;;
2021/07/30 01:57:22;;;;;;;9.85;8.9;;;;;;;15.23;100;94908.89;;;;
2021/07/30 01:58:22;;;;;;;9.799999;8.799999;;;;;;;15.07;100;94904.94;;;;
2021/07/30 01:59:23;;;;;;;9.799999;8.799999;;;;;;;15.07;100;94904.94;;;;
2021/07/30 02:00:23;;;;;;;9.799999;8.799999;;;;;;;15.07;100;94904.94;;;;
2021/07/30 02:01:24;;;;;;;9.799999;8.799999;;;;;;;15.07;100;94904.94;;;;
2021/07/30 02:02:24;;;;;;;9.799999;8.799999;;;;;;;15.07;100;94904.94;;;;
2021/07/30 02:03:25;;;;;;;9.799999;8.799999;;;;;;;15.07;100;94904.94;;;;
2021/07/30 02:04:26;;;;;;;9.799999;8.799999;;;;;;;15.07;100;94904.94;;;;
2021/07/30 02:05:26;;;;;;;9.799999;8.799999;;;;;;;15.07;100;94904.94;;;;
2021/07/30 02:06:27;;;;;;;9.799999;8.799999;;;;;;;15.07;100;94904.94;;;;
2021/07/30 02:07:27;;;;;;;9.799999;8.799999;;;;;;;15.07;100;94904.94;;;;
2021/07/30 02:08:28;;;;;;;9.9;8.85;;;;;;;15;100;94908.48;;;;
2021/07/30 02:09:28;;;;;;;9.9;8.85;;;;;;;15;100;94908.48;;;;
2021/07/30 02:10:29;;;;;;;9.9;8.85;;;;;;;15;100;94908.48;;;;
2021/07/30 02:11:30;;;;;;;9.9;8.85;;;;;;;15;100;94908.48;;;;
2021/07/30 02:12:30;;;;;;;9.9;8.85;;;;;;;15;100;94908.48;;;;
2021/07/30 02:14:35;;;;;;;9.9;8.85;;;;;;;15;100;94908.48;;;;
2021/07/30 02:15:36;;;;;;;9.9;8.85;;;;;;;15;100;94908.48;;;;
2021/07/30 02:16:36;;;;;;;9.9;8.85;;;;;;;15;100;94908.48;;;;
2021/07/30 02:17:37;;;;;;;9.9;8.85;;;;;;;15;100;94908.48;;;;
2021/07/30 02:18:38;;;;;;;9.9;8.85;;;;;;;15;100;94908.48;;;;
2021/07/30 02:19:38;;;;;;;11.6;9.25;;;;;;;14.96;100;94916.93;;;;
2021/07/30 02:20:39;;;;;;;11.6;9.25;;;;;;;14.96;100;94916.93;;;;
2021/07/30 02:21:39;;;;;;;11.6;9.25;;;;;;;14.96;100;94916.93;;;;
2021/07/30 02:22:40;;;;;;;11.6;9.25;;;;;;;14.96;100;94916.93;;;;
2021/07/30 02:23:40;;;;;;;11.6;9.25;;;;;;;14.96;100;94916.93;;;;
2021/07/30 02:24:41;;;;;;;11.6;9.25;;;;;;;14.96;100;94916.93;;;;
2021/07/30 02:25:41;;;;;;;11.6;9.25;;;;;;;14.96;100;94916.93;;;;
2021/07/30 02:26:42;;;;;;;11.6;9.25;;;;;;;14.96;100;94916.93;;;;
2021/07/30 02:27:42;;;;;;;11.6;9.25;;;;;;;14.96;100;94916.93;;;;
2021/07/30 02:28:43;;;;;;;11.6;9.25;;;;;;;14.96;100;94916.93;;;;
2021/07/30 02:29:43;;;;;;;9.85;8.9;;;;;;;15.01;100;94925.61;;;;
2021/07/30 02:30:44;;;;;;;9.85;8.9;;;;;;;15.01;100;94925.61;;;;
2021/07/30 02:31:44;;;;;;;9.85;8.9;;;;;;;15.01;100;94925.61;;;;
2021/07/30 02:32:45;;;;;;;9.85;8.9;;;;;;;15.01;100;94925.61;;;;
2021/07/30 02:33:45;;;;;;;9.85;8.9;;;;;;;15.01;100;94925.61;;;;
2021/07/30 02:34:46;;;;;;;9.85;8.9;;;;;;;15.01;100;94925.61;;;;
2021/07/30 02:35:47;;;;;;;9.85;8.9;;;;;;;15.01;100;94925.61;;;;
2021/07/30 02:36:47;;;;;;;9.85;8.9;;;;;;;15.01;100;94925.61;;;;
2021/07/30 02:37:48;;;;;;;9.85;8.9;;;;;;;15.01;100;94925.61;;;;
2021/07/30 02:38:49;;;;;;;9.85;8.9;;;;;;;15.01;100;94925.61;;;;
2021/07/30 02:39:50;;;;;;;9.85;8.9;;;;;;;15.01;100;94925.61;;;;
2021/07/30 02:40:50;;;;;;;9.799999;8.900001;;;;;;;15.02;100;94927.64;;;;
2021/07/30 02:41:51;;;;;;;9.799999;8.900001;;;;;;;15.02;100;94927.64;;;;
2021/07/30 02:42:51;;;;;;;9.799999;8.900001;;;;;;;15.02;100;94927.64;;;;
2021/07/30 02:43:52;;;;;;;9.799999;8.900001;;;;;;;15.02;100;94927.64;;;;
2021/07/30 02:44:52;;;;;;;9.799999;8.900001;;;;;;;15.02;100;94927.64;;;;
2021/07/30 02:45:53;;;;;;;9.799999;8.900001;;;;;;;15.02;100;94927.64;;;;
2021/07/30 02:46:53;;;;;;;9.799999;8.900001;;;;;;;15.02;100;94927.64;;;;
2021/07/30 02:47:53;;;;;;;9.799999;8.900001;;;;;;;15.02;100;94927.64;;;;
2021/07/30 02:48:54;;;;;;;9.799999;8.900001;;;;;;;15.02;100;94927.64;;;;
2021/07/30 02:49:54;;;;;;;9.799999;8.900001;;;;;;;15.02;100;94927.64;;;;
2021/07/30 02:50:55;;;;;;;10.65;9.549999;;;;;;;15.06;100;94940.98;;;;
2021/07/30 02:51:56;;;;;;;10.65;9.549999;;;;;;;15.06;100;94940.98;;;;
2021/07/30 02:52:56;;;;;;;10.65;9.549999;;;;;;;15.06;100;94940.98;;;;
2021/07/30 02:53:57;;;;;;;10.65;9.549999;;;;;;;15.06;100;94940.98;;;;
2021/07/30 02:54:57;;;;;;;10.65;9.549999;;;;;;;15.06;100;94940.98;;;;
2021/07/30 02:55:57;;;;;;;10.65;9.549999;;;;;;;15.06;100;94940.98;;;;
2021/07/30 02:56:58;;;;;;;10.65;9.549999;;;;;;;15.06;100;94940.98;;;;
2021/07/30 02:57:58;;;;;;;10.65;9.549999;;;;;;;15.06;100;94940.98;;;;
2021/07/30 02:58:59;;;;;;;10.65;9.549999;;;;;;;15.06;100;94940.98;;;;
2021/07/30 03:00:00;;;;;;;10.65;9.549999;;;;;;;15.06;100;94940.98;;;;
2021/07/30 03:01:00;;;;;;;10.65;9.549999;;;;;;;15.06;100;94940.98;;;;
2021/07/30 03:02:01;;;;;;;10.85;9.85;;;;;;;15.09;100;94940.84;;;;
2021/07/30 03:03:01;;;;;;;10.85;9.85;;;;;;;15.09;100;94940.84;;;;
2021/07/30 03:04:02;;;;;;;10.85;9.85;;;;;;;15.09;100;94940.84;;;;
2021/07/30 03:05:02;;;;;;;10.85;9.85;;;;;;;15.09;100;94940.84;;;;
2021/07/30 03:06:04;;;;;;;10.85;9.85;;;;;;;15.09;100;94940.84;;;;
2021/07/30 03:07:04;;;;;;;10.85;9.85;;;;;;;15.09;100;94940.84;;;;
2021/07/30 03:08:05;;;;;;;10.85;9.85;;;;;;;15.09;100;94940.84;;;;
2021/07/30 03:09:06;;;;;;;10.85;9.85;;;;;;;15.09;100;94940.84;;;;
2021/07/30 03:10:06;;;;;;;10.85;9.85;;;;;;;15.09;100;94940.84;;;;
2021/07/30 03:11:07;;;;;;;10.85;9.85;;;;;;;15.09;100;94940.84;;;;
2021/07/30 03:12:08;;;;;;;10.85;9.85;;;;;;;15.09;100;94940.84;;;;
2021/07/30 03:13:09;;;;;;;11.25;10.25;;;;;;;15.34;100;94953.63;;;;
2021/07/30 03:14:09;;;;;;;11.25;10.25;;;;;;;15.34;100;94953.63;;;;
2021/07/30 03:15:10;;;;;;;11.25;10.25;;;;;;;15.34;100;94953.63;;;;
2021/07/30 03:16:13;;;;;;;11.25;10.25;;;;;;;15.34;100;94953.63;;;;
2021/07/30 03:17:14;;;;;;;11.25;10.25;;;;;;;15.34;100;94953.63;;;;
2021/07/30 03:18:14;;;;;;;11.25;10.25;;;;;;;15.34;100;94953.63;;;;
2021/07/30 03:19:15;;;;;;;11.25;10.25;;;;;;;15.34;100;94953.63;;;;
2021/07/30 03:20:15;;;;;;;11.25;10.25;;;;;;;15.34;100;94953.63;;;;
2021/07/30 03:21:16;;;;;;;11.25;10.25;;;;;;;15.34;100;94953.63;;;;
2021/07/30 03:22:16;;;;;;;11.25;10.25;;;;;;;15.34;100;94953.63;;;;
2021/07/30 03:23:17;;;;;;;11.5;10.35;;;;;;;15.49;100;94957.71;;;;
2021/07/30 03:24:17;;;;;;;11.5;10.35;;;;;;;15.49;100;94957.71;;;;
2021/07/30 03:25:18;;;;;;;11.5;10.35;;;;;;;15.49;100;94957.71;;;;
2021/07/30 03:26:18;;;;;;;11.5;10.35;;;;;;;15.49;100;94957.71;;;;
2021/07/30 03:27:19;;;;;;;11.5;10.35;;;;;;;15.49;100;94957.71;;;;
2021/07/30 03:28:19;;;;;;;11.5;10.35;;;;;;;15.49;100;94957.71;;;;
2021/07/30 03:29:21;;;;;;;11.5;10.35;;;;;;;15.49;100;94957.71;;;;
2021/07/30 03:30:21;;;;;;;11.5;10.35;;;;;;;15.49;100;94957.71;;;;
2021/07/30 03:31:22;;;;;;;11.5;10.35;;;;;;;15.49;100;94957.71;;;;
2021/07/30 03:32:23;;;;;;;11.5;10.35;;;;;;;15.49;100;94957.71;;;;
2021/07/30 03:33:23;;;;;;;11.5;10.35;;;;;;;15.49;100;94957.71;;;;
2021/07/30 03:34:24;;;;;;;10.8;9.799999;;;;;;;15.68;100;94956.48;;;;
2021/07/30 03:35:24;;;;;;;10.8;9.799999;;;;;;;15.68;100;94956.48;;;;
2021/07/30 03:36:25;;;;;;;10.8;9.799999;;;;;;;15.68;100;94956.48;;;;
2021/07/30 03:37:25;;;;;;;10.8;9.799999;;;;;;;15.68;100;94956.48;;;;
2021/07/30 03:38:26;;;;;;;10.8;9.799999;;;;;;;15.68;100;94956.48;;;;
2021/07/30 03:39:26;;;;;;;10.8;9.799999;;;;;;;15.68;100;94956.48;;;;
2021/07/30 03:40:27;;;;;;;10.8;9.799999;;;;;;;15.68;100;94956.48;;;;
2021/07/30 03:41:27;;;;;;;10.8;9.799999;;;;;;;15.68;100;94956.48;;;;
2021/07/30 03:42:28;;;;;;;10.8;9.799999;;;;;;;15.68;100;94956.48;;;;
2021/07/30 03:43:28;;;;;;;10.8;9.799999;;;;;;;15.68;100;94956.48;;;;
2021/07/30 03:44:29;;;;;;;11.45;10.35;;;;;;;15.69;100;94956.86;;;;
2021/07/30 03:45:29;;;;;;;11.45;10.35;;;;;;;15.69;100;94956.86;;;;
2021/07/30 03:46:30;;;;;;;11.45;10.35;;;;;;;15.69;100;94956.86;;;;
2021/07/30 03:47:30;;;;;;;11.45;10.35;;;;;;;15.69;100;94956.86;;;;
2021/07/30 03:48:31;;;;;;;11.45;10.35;;;;;;;15.69;100;94956.86;;;;
2021/07/30 03:49:32;;;;;;;11.45;10.35;;;;;;;15.69;100;94956.86;;;;
2021/07/30 03:50:32;;;;;;;11.45;10.35;;;;;;;15.69;100;94956.86;;;;
2021/07/30 03:51:33;;;;;;;11.45;10.35;;;;;;;15.69;100;94956.86;;;;
2021/07/30 03:52:34;;;;;;;11.45;10.35;;;;;;;15.69;100;94956.86;;;;
2021/07/30 03:53:34;;;;;;;11.45;10.35;;;;;;;15.69;100;94956.86;;;;
2021/07/30 03:54:35;;;;;;;11.45;10.35;;;;;;;15.69;100;94956.86;;;;
2021/07/30 03:55:35;;;;;;;11.6;10.4;;;;;;;15.67;100;94963.53;;;;
2021/07/30 03:56:36;;;;;;;11.6;10.4;;;;;;;15.67;100;94963.53;;;;
2021/07/30 03:57:37;;;;;;;11.6;10.4;;;;;;;15.67;100;94963.53;;;;
2021/07/30 03:58:38;;;;;;;11.6;10.4;;;;;;;15.67;100;94963.53;;;;
2021/07/30 03:59:38;;;;;;;11.6;10.4;;;;;;;15.67;100;94963.53;;;;
2021/07/30 04:00:39;;;;;;;11.6;10.4;;;;;;;15.67;100;94963.53;;;;
2021/07/30 04:01:40;;;;;;;11.6;10.4;;;;;;;15.67;100;94963.53;;;;
2021/07/30 04:02:42;;;;;;;11.6;10.4;;;;;;;15.67;100;94963.53;;;;
2021/07/30 04:03:42;;;;;;;11.6;10.4;;;;;;;15.67;100;94963.53;;;;
2021/07/30 04:04:43;;;;;;;11.6;10.4;;;;;;;15.67;100;94963.53;;;;
2021/07/30 04:05:43;;;;;;;12.2;11;;;;;;;15.52;100;94948.61;;;;
2021/07/30 04:06:44;;;;;;;12.2;11;;;;;;;15.52;100;94948.61;;;;
2021/07/30 04:07:45;;;;;;;12.2;11;;;;;;;15.52;100;94948.61;;;;
2021/07/30 04:08:45;;;;;;;12.2;11;;;;;;;15.52;100;94948.61;;;;
2021/07/30 04:09:46;;;;;;;12.2;11;;;;;;;15.52;100;94948.61;;;;
2021/07/30 04:10:46;;;;;;;12.2;11;;;;;;;15.52;100;94948.61;;;;
2021/07/30 04:11:47;;;;;;;12.2;11;;;;;;;15.52;100;94948.61;;;;
2021/07/30 04:12:47;;;;;;;12.2;11;;;;;;;15.52;100;94948.61;;;;
2021/07/30 04:13:48;;;;;;;12.2;11;;;;;;;15.52;100;94948.61;;;;
2021/07/30 04:14:48;;;;;;;12.2;11;;;;;;;15.52;100;94948.61;;;;
2021/07/30 04:15:49;;;;;;;12.2;11;;;;;;;15.52;100;94948.61;;;;
2021/07/30 04:16:49;;;;;;;12.75;11.45;;;;;;;15.59;100;94961.8;;;;
2021/07/30 04:17:50;;;;;;;12.75;11.45;;;;;;;15.59;100;94961.8;;;;
2021/07/30 04:18:50;;;;;;;12.75;11.45;;;;;;;15.59;100;94961.8;;;;
2021/07/30 04:19:53;;;;;;;12.75;11.45;;;;;;;15.59;100;94961.8;;;;
2021/07/30 04:20:54;;;;;;;12.75;11.45;;;;;;;15.59;100;94961.8;;;;
2021/07/30 04:21:54;;;;;;;12.75;11.45;;;;;;;15.59;100;94961.8;;;;
2021/07/30 04:22:55;;;;;;;12.75;11.45;;;;;;;15.59;100;94961.8;;;;
2021/07/30 04:23:55;;;;;;;12.75;11.45;;;;;;;15.59;100;94961.8;;;;
2021/07/30 04:24:56;;;;;;;12.75;11.45;;;;;;;15.59;100;94961.8;;;;
2021/07/30 04:25:56;;;;;;;12.75;11.45;;;;;;;15.59;100;94961.8;;;;
2021/07/30 04:26:57;;;;;;;12.35;11.1;;;;;;;15.56;100;94963.69;;;;
2021/07/30 04:27:57;;;;;;;12.35;11.1;;;;;;;15.56;100;94963.69;;;;
2021/07/30 04:28:58;;;;;;;12.35;11.1;;;;;;;15.56;100;94963.69;;;;
2021/07/30 04:29:59;;;;;;;12.35;11.1;;;;;;;15.56;100;94963.69;;;;
2021/07/30 04:30:59;;;;;;;12.35;11.1;;;;;;;15.56;100;94963.69;;;;
2021/07/30 04:32:03;;;;;;;12.35;11.1;;;;;;;15.56;100;94963.69;;;;
2021/07/30 04:33:04;;;;;;;12.35;11.1;;;;;;;15.56;100;94963.69;;;;
2021/07/30 04:34:05;;;;;;;12.35;11.1;;;;;;;15.56;100;94963.69;;;;
2021/07/30 04:35:05;;;;;;;12.35;11.1;;;;;;;15.56;100;94963.69;;;;
2021/07/30 04:36:06;;;;;;;12.35;11.1;;;;;;;15.56;100;94963.69;;;;
2021/07/30 04:37:12;;;;;;;12.35;11.1;;;;;;;15.56;100;94963.69;;;;
2021/07/30 04:38:13;;;;;;;12.15;10.95;;;;;;;15.76;100;94951.4;;;;
2021/07/30 04:39:13;;;;;;;12.15;10.95;;;;;;;15.76;100;94951.4;;;;
2021/07/30 04:40:14;;;;;;;12.15;10.95;;;;;;;15.76;100;94951.4;;;;
2021/07/30 04:41:14;;;;;;;12.15;10.95;;;;;;;15.76;100;94951.4;;;;
2021/07/30 04:42:15;;;;;;;12.15;10.95;;;;;;;15.76;100;94951.4;;;;
2021/07/30 04:43:15;;;;;;;12.15;10.95;;;;;;;15.76;100;94951.4;;;;
2021/07/30 04:44:16;;;;;;;12.15;10.95;;;;;;;15.76;100;94951.4;;;;
2021/07/30 04:45:16;;;;;;;12.15;10.95;;;;;;;15.76;100;94951.4;;;;
2021/07/30 04:46:17;;;;;;;12.15;10.95;;;;;;;15.76;100;94951.4;;;;
2021/07/30 04:47:18;;;;;;;12.15;10.95;;;;;;;15.76;100;94951.4;;;;
2021/07/30 04:48:19;;;;;;;11.1;10;;;;;;;16.01;100;94953.64;;;;
2021/07/30 04:49:19;;;;;;;11.1;10;;;;;;;16.01;100;94953.64;;;;
2021/07/30 04:50:20;;;;;;;11.1;10;;;;;;;16.01;100;94953.64;;;;
2021/07/30 04:51:20;;;;;;;11.1;10;;;;;;;16.01;100;94953.64;;;;
2021/07/30 04:52:21;;;;;;;11.1;10;;;;;;;16.01;100;94953.64;;;;
2021/07/30 04:53:21;;;;;;;11.1;10;;;;;;;16.01;100;94953.64;;;;
2021/07/30 04:54:22;;;;;;;11.1;10;;;;;;;16.01;100;94953.64;;;;
2021/07/30 04:55:22;;;;;;;11.1;10;;;;;;;16.01;100;94953.64;;;;
2021/07/30 04:56:23;;;;;;;11.1;10;;;;;;;16.01;100;94953.64;;;;
2021/07/30 04:57:23;;;;;;;11.1;10;;;;;;;16.01;100;94953.64;;;;
2021/07/30 04:58:24;;;;;;;11.1;10;;;;;;;16.01;100;94953.64;;;;
2021/07/30 04:59:24;;;;;;;11.6;10.1;;;;;;;16.12;100;94935.77;;;;
2021/07/30 05:00:25;;;;;;;11.6;10.1;;;;;;;16.12;100;94935.77;;;;
2021/07/30 05:01:26;;;;;;;11.6;10.1;;;;;;;16.12;100;94935.77;;;;
2021/07/30 05:02:26;;;;;;;11.6;10.1;;;;;;;16.12;100;94935.77;;;;
2021/07/30 05:03:27;;;;;;;11.6;10.1;;;;;;;16.12;100;94935.77;;;;
2021/07/30 05:04:29;;;;;;;11.6;10.1;;;;;;;16.12;100;94935.77;;;;
2021/07/30 05:05:29;;;;;;;11.6;10.1;;;;;;;16.12;100;94935.77;;;;
2021/07/30 05:06:30;;;;;;;11.6;10.1;;;;;;;16.12;100;94935.77;;;;
2021/07/30 05:07:30;;;;;;;11.6;10.1;;;;;;;16.12;100;94935.77;;;;
2021/07/30 05:08:31;;;;;;;11.6;10.1;;;;;;;16.12;100;94935.77;;;;
2021/07/30 05:09:31;;;;;;;11.6;10.1;;;;;;;16.12;100;94935.77;;;;
2021/07/30 05:10:32;;;;;;;10.85;9.75;;;;;;;16.24;100;94943.5;;;;
2021/07/30 05:11:32;;;;;;;10.85;9.75;;;;;;;16.24;100;94943.5;;;;
2021/07/30 05:12:33;;;;;;;10.85;9.75;;;;;;;16.24;100;94943.5;;;;
2021/07/30 05:13:33;;;;;;;10.85;9.75;;;;;;;16.24;100;94943.5;;;;
2021/07/30 05:14:34;;;;;;;10.85;9.75;;;;;;;16.24;100;94943.5;;;;
2021/07/30 05:15:34;;;;;;;10.85;9.75;;;;;;;16.24;100;94943.5;;;;
2021/07/30 05:16:35;;;;;;;10.85;9.75;;;;;;;16.24;100;94943.5;;;;
2021/07/30 05:17:35;;;;;;;10.85;9.75;;;;;;;16.24;100;94943.5;;;;
2021/07/30 05:18:36;;;;;;;10.85;9.75;;;;;;;16.24;100;94943.5;;;;
2021/07/30 05:19:37;;;;;;;10.85;9.75;;;;;;;16.24;100;94943.5;;;;
2021/07/30 05:20:38;;;;;;;11.15;10.05;;;;;;;16.52;100;94955.22;;;;
2021/07/30 05:21:39;;;;;;;11.15;10.05;;;;;;;16.52;100;94955.22;;;;
2021/07/30 05:22:40;;;;;;;11.15;10.05;;;;;;;16.52;100;94955.22;;;;
2021/07/30 05:23:40;;;;;;;11.15;10.05;;;;;;;16.52;100;94955.22;;;;
2021/07/30 05:24:41;;;;;;;11.15;10.05;;;;;;;16.52;100;94955.22;;;;
2021/07/30 05:25:42;;;;;;;11.15;10.05;;;;;;;16.52;100;94955.22;;;;
2021/07/30 05:26:53;;;;;;;11.15;10.05;;;;;;;16.52;100;94955.22;;;;
2021/07/30 05:27:53;;;;;;;11.15;10.05;;;;;;;16.52;100;94955.22;;;;
2021/07/30 05:28:53;;;;;;;11.15;10.05;;;;;;;16.52;100;94955.22;;;;
2021/07/30 05:29:54;;;;;;;11.15;10.05;;;;;;;16.52;100;94955.22;;;;
2021/07/30 05:30:57;;;;;;;9.9;8.899999;;;;;;;16.79;100;94932.86;;;;
2021/07/30 05:31:58;;;;;;;9.9;8.899999;;;;;;;16.79;100;94932.86;;;;
2021/07/30 05:32:59;;;;;;;9.9;8.899999;;;;;;;16.79;100;94932.86;;;;
2021/07/30 05:33:59;;;;;;;9.9;8.899999;;;;;;;16.79;100;94932.86;;;;
2021/07/30 05:35:00;;;;;;;9.9;8.899999;;;;;;;16.79;100;94932.86;;;;
2021/07/30 05:36:00;;;;;;;9.9;8.899999;;;;;;;16.79;100;94932.86;;;;
2021/07/30 05:37:01;;;;;;;9.9;8.899999;;;;;;;16.79;100;94932.86;;;;
2021/07/30 05:38:02;;;;;;;9.9;8.899999;;;;;;;16.79;100;94932.86;;;;
2021/07/30 05:39:03;;;;;;;9.9;8.899999;;;;;;;16.79;100;94932.86;;;;
2021/07/30 05:40:03;;;;;;;9.9;8.899999;;;;;;;16.79;100;94932.86;;;;
2021/07/30 05:41:05;;;;;;;9.9;8.899999;;;;;;;16.79;100;94932.86;;;;
2021/07/30 05:42:05;;;;;;;9.050001;8.15;;;;;;;17.14;100;94940.8;;;;
2021/07/30 05:43:06;;;;;;;9.050001;8.15;;;;;;;17.14;100;94940.8;;;;
2021/07/30 05:44:06;;;;;;;9.050001;8.15;;;;;;;17.14;100;94940.8;;;;
2021/07/30 05:45:07;;;;;;;9.050001;8.15;;;;;;;17.14;100;94940.8;;;;
2021/07/30 05:46:09;;;;;;;9.050001;8.15;;;;;;;17.14;100;94940.8;;;;
2021/07/30 05:47:10;;;;;;;9.050001;8.15;;;;;;;17.14;100;94940.8;;;;
2021/07/30 05:48:10;;;;;;;9.050001;8.15;;;;;;;17.14;100;94940.8;;;;
2021/07/30 05:49:11;;;;;;;9.050001;8.15;;;;;;;17.14;100;94940.8;;;;
2021/07/30 05:50:11;;;;;;;9.050001;8.15;;;;;;;17.14;100;94940.8;;;;
2021/07/30 05:51:12;;;;;;;9.050001;8.15;;;;;;;17.14;100;94940.8;;;;
2021/07/30 05:52:13;;;;;;;9.050001;8.15;;;;;;;17.14;100;94940.8;;;;
2021/07/30 05:53:14;;;;;;;9.699999;8.699999;;;;;;;17.49;100;94938.73;;;;
2021/07/30 05:54:14;;;;;;;9.699999;8.699999;;;;;;;17.49;100;94938.73;;;;
2021/07/30 05:55:15;;;;;;;9.699999;8.699999;;;;;;;17.49;100;94938.73;;;;
2021/07/30 05:56:15;;;;;;;9.699999;8.699999;;;;;;;17.49;100;94938.73;;;;
2021/07/30 05:57:16;;;;;;;9.699999;8.699999;;;;;;;17.49;100;94938.73;;;;
2021/07/30 05:58:16;;;;;;;9.699999;8.699999;;;;;;;17.49;100;94938.73;;;;
2021/07/30 05:59:17;;;;;;;9.699999;8.699999;;;;;;;17.49;100;94938.73;;;;
2021/07/30 06:00:17;;;;;;;9.699999;8.699999;;;;;;;17.49;100;94938.73;;;;
2021/07/30 06:01:18;;;;;;;9.699999;8.699999;;;;;;;17.49;100;94938.73;;;;
2021/07/30 06:02:18;;;;;;;9.699999;8.699999;;;;;;;17.49;100;94938.73;;;;